createdAt,value
2023-02-25T00:01:57.822Z,99043.38
2023-02-25T00:07:00.319Z,99030.97
2023-02-25T00:11:56.764Z,99031.19
2023-02-25T00:16:56.385Z,99031.19
2023-02-25T00:21:52.842Z,99036.44
2023-02-25T00:26:49.265Z,99033.91
2023-02-25T00:31:46.589Z,99036.44
2023-02-25T00:36:43.422Z,99026.75
2023-02-25T00:41:39.797Z,99029.19
2023-02-25T00:46:36.249Z,99032.75
2023-02-25T00:51:33.366Z,99039.81
2023-02-25T00:56:29.765Z,99042.66
2023-02-25T01:01:27.737Z,99049.69
2023-02-25T01:06:29.213Z,99053.34
2023-02-25T01:11:29.405Z,99049.03
2023-02-25T01:16:28.827Z,99049.97
2023-02-25T01:21:30.795Z,99053.44
2023-02-25T01:26:30.445Z,99051.66
2023-02-25T01:31:30.303Z,99056.28
2023-02-25T01:36:28.621Z,99055.34
2023-02-25T01:41:27.271Z,99064.81
2023-02-25T01:46:23.994Z,99068.47
2023-02-25T01:51:23.380Z,99070.91
2023-02-25T01:56:22.869Z,99053.25
2023-02-25T02:01:22.540Z,99053.88
2023-02-25T02:06:26.253Z,99057.47
2023-02-25T02:11:22.709Z,99068.69
2023-02-25T02:16:39.443Z,99077.09
2023-02-25T02:22:17.662Z,99078.81
2023-02-25T02:27:30.007Z,99079.53
2023-02-25T02:32:43.926Z,99071.63
2023-02-25T02:37:53.248Z,99082.88
2023-02-25T02:42:54.629Z,99067.31
2023-02-25T02:48:09.498Z,99072.78
2023-02-25T02:53:11.575Z,99085.19
2023-02-25T02:58:13.156Z,99085.19
2023-02-25T03:03:20.959Z,99078.25
2023-02-25T03:08:23.238Z,99088.75
2023-02-25T03:13:19.861Z,99099.34
2023-02-25T03:18:23.901Z,99091.38
2023-02-25T03:23:24.189Z,99100.00
2023-02-25T03:28:30.483Z,99114.81
2023-02-25T03:33:39.859Z,99112.09
2023-02-25T03:38:39.042Z,99104.09
2023-02-25T03:43:41.786Z,99121.56
2023-02-25T03:48:38.936Z,99126.81
2023-02-25T03:53:35.733Z,99136.38
2023-02-25T03:58:34.635Z,99138.88
2023-02-25T04:03:30.934Z,99145.81
2023-02-25T04:08:27.329Z,99158.97
2023-02-25T04:13:23.915Z,99164.22
2023-02-25T04:18:20.317Z,99159.03
2023-02-25T04:23:16.813Z,99167.78
2023-02-25T04:28:13.254Z,99164.31
2023-02-25T04:33:12.258Z,99168.09
2023-02-25T04:38:09.278Z,99172.06
2023-02-25T04:43:05.819Z,99172.34
2023-02-25T04:48:02.247Z,99166.66
2023-02-25T04:53:00.335Z,99177.38
2023-02-25T04:57:56.970Z,99174.41
2023-02-25T05:02:53.337Z,99183.41
2023-02-25T05:07:49.673Z,99176.88
2023-02-25T05:12:46.052Z,99184.00
2023-02-25T05:17:42.403Z,99183.47
2023-02-25T05:22:39.151Z,99193.22
2023-02-25T05:27:35.660Z,99197.81
2023-02-25T05:32:32.269Z,99204.09
2023-02-25T05:37:28.739Z,99200.72
2023-02-25T05:42:25.098Z,99213.97
2023-02-25T05:47:22.381Z,99222.66
2023-02-25T05:52:18.792Z,99226.97
2023-02-25T05:57:15.919Z,99239.25
2023-02-25T06:02:12.265Z,99247.88
2023-02-25T06:07:08.718Z,99247.75
2023-02-25T06:12:05.373Z,99255.75
2023-02-25T06:17:02.621Z,99261.84
2023-02-25T06:21:58.993Z,99261.00
2023-02-25T06:26:55.328Z,99283.44
2023-02-25T06:31:51.777Z,99306.50
2023-02-25T06:36:48.147Z,99289.28
2023-02-25T06:41:45.318Z,99286.31
2023-02-25T06:46:41.700Z,99302.31
2023-02-25T06:51:38.574Z,99302.38
2023-02-25T06:56:34.932Z,99301.00
2023-02-25T07:01:31.341Z,99313.81
2023-02-25T07:06:27.898Z,99305.56
2023-02-25T07:11:24.316Z,99306.72
2023-02-25T07:16:21.014Z,99309.03
2023-02-25T07:21:18.167Z,99314.44
2023-02-25T07:26:15.514Z,99314.03
2023-02-25T07:31:15.256Z,99321.81
2023-02-25T07:36:12.184Z,99315.16
2023-02-25T07:41:11.717Z,99313.66
2023-02-25T07:46:09.142Z,99326.22
2023-02-25T07:51:07.715Z,99319.25
2023-02-25T07:56:06.583Z,99323.38
2023-02-25T08:01:25.845Z,99327.66
2023-02-25T08:06:22.795Z,99319.03
2023-02-25T08:11:20.037Z,99322.72
2023-02-25T08:16:18.474Z,99322.53
2023-02-25T08:21:18.011Z,99337.94
2023-02-25T08:26:17.400Z,99332.34
2023-02-25T08:31:13.964Z,99337.94
2023-02-25T08:36:13.048Z,99342.53
2023-02-25T08:41:09.605Z,99360.09
2023-02-25T08:46:06.705Z,99352.13
2023-02-25T08:51:10.596Z,99347.06
2023-02-25T08:56:08.795Z,99363.94
2023-02-25T09:01:15.476Z,99372.72
2023-02-25T09:06:12.731Z,99356.34
2023-02-25T09:11:09.440Z,99360.97
2023-02-25T09:16:06.332Z,99391.25
2023-02-25T09:21:03.140Z,99385.47
2023-02-25T09:26:03.911Z,99387.97
2023-02-25T09:31:02.411Z,99387.38
2023-02-25T09:36:08.898Z,99396.41
2023-02-25T09:41:22.613Z,99400.75
2023-02-25T09:46:19.498Z,99403.50
2023-02-25T09:51:22.615Z,99412.16
2023-02-25T09:56:21.539Z,99423.09
2023-02-25T10:01:36.284Z,99424.50
2023-02-25T10:06:37.628Z,99439.56
2023-02-25T10:11:49.933Z,99457.38
2023-02-25T10:17:39.122Z,99471.63
2023-02-25T10:22:35.601Z,99481.09
2023-02-25T10:27:39.864Z,99479.84
2023-02-25T10:32:37.632Z,99503.44
2023-02-25T10:37:38.061Z,99524.03
2023-02-25T10:42:34.456Z,99512.13
2023-02-25T10:47:36.492Z,99531.91
2023-02-25T10:52:32.817Z,99538.81
2023-02-25T10:57:42.769Z,99527.59
2023-02-25T11:02:43.721Z,99515.06
2023-02-25T11:07:41.891Z,99532.28
2023-02-25T11:12:50.633Z,99528.47
2023-02-25T11:17:47.196Z,99518.00
2023-02-25T11:22:46.466Z,99537.72
2023-02-25T11:27:45.709Z,99527.00
2023-02-25T11:32:44.879Z,99531.41
2023-02-25T11:37:48.166Z,99531.97
2023-02-25T11:42:59.298Z,99541.41
2023-02-25T11:47:55.740Z,99532.38
2023-02-25T11:53:24.574Z,99544.91
2023-02-25T11:58:53.160Z,99547.66
2023-02-25T12:04:04.551Z,99557.97
2023-02-25T12:09:36.081Z,99570.00
2023-02-25T12:15:14.210Z,99568.63
2023-02-25T12:20:25.415Z,99569.75
2023-02-25T12:25:36.994Z,99581.03
2023-02-25T12:30:37.114Z,99585.22
2023-02-25T12:36:06.107Z,99603.47
2023-02-25T12:41:39.824Z,99590.56
2023-02-25T12:46:45.462Z,99623.59
2023-02-25T12:52:01.770Z,99618.66
2023-02-25T12:57:21.690Z,99620.47
2023-02-25T13:02:43.354Z,99619.28
2023-02-25T13:07:57.949Z,99620.25
2023-02-25T13:13:26.027Z,99618.28
2023-02-25T13:18:50.609Z,99637.06
2023-02-25T13:24:11.494Z,99638.47
2023-02-25T13:29:34.076Z,99657.03
2023-02-25T13:34:36.131Z,99663.28
2023-02-25T13:39:52.080Z,99667.13
2023-02-25T13:45:26.712Z,99668.41
2023-02-25T13:50:46.724Z,99680.81
2023-02-25T13:55:54.772Z,99669.50
2023-02-25T14:01:28.545Z,99685.06
2023-02-25T14:07:02.957Z,99667.75
2023-02-25T14:12:17.510Z,99688.84
2023-02-25T14:17:32.689Z,99697.38
2023-02-25T14:22:41.089Z,99708.66
2023-02-25T14:27:51.074Z,99759.34
2023-02-25T14:33:08.530Z,99727.28
2023-02-25T14:38:12.361Z,99729.69
2023-02-25T14:43:27.234Z,99741.16
2023-02-25T14:48:47.703Z,99738.25
2023-02-25T14:54:02.690Z,99762.47
2023-02-25T14:59:23.843Z,99779.28
2023-02-25T15:05:09.665Z,99783.00
2023-02-25T15:10:30.721Z,99792.63
2023-02-25T15:15:39.235Z,99794.38
2023-02-25T15:20:40.334Z,99797.97
2023-02-25T15:25:37.462Z,99798.44
2023-02-25T15:31:45.093Z,99802.00
2023-02-25T15:36:48.360Z,99813.53
2023-02-25T15:41:57.606Z,99822.19
2023-02-25T15:47:11.849Z,99836.50
2023-02-25T15:52:09.772Z,99831.63
2023-02-25T15:57:09.099Z,99845.16
2023-02-25T16:02:28.942Z,99852.84
2023-02-25T16:07:38.383Z,99869.31
2023-02-25T16:12:35.245Z,99866.31
2023-02-25T16:17:35.180Z,99882.00
2023-02-25T16:22:32.217Z,99883.84
2023-02-25T16:27:49.620Z,99887.75
2023-02-25T16:33:04.966Z,99905.78
2023-02-25T16:38:39.467Z,99908.22
2023-02-25T16:43:40.982Z,99920.28
2023-02-25T16:48:45.714Z,99929.34
2023-02-25T16:53:45.744Z,99926.31
2023-02-25T16:58:42.314Z,99941.78
2023-02-25T17:03:46.694Z,99958.88
2023-02-25T17:08:48.858Z,99954.13
2023-02-25T17:13:48.120Z,99957.25
2023-02-25T17:18:50.996Z,99975.22
2023-02-25T17:23:48.265Z,99975.97
2023-02-25T17:28:47.736Z,99981.69
2023-02-25T17:33:47.277Z,99980.56
2023-02-25T17:38:44.892Z,99990.69
2023-02-25T17:43:41.412Z,99997.50
2023-02-25T17:48:43.165Z,100001.47
2023-02-25T17:53:54.313Z,99996.53
2023-02-25T17:58:52.486Z,100000.25
2023-02-25T18:03:50.816Z,100006.44
2023-02-25T18:08:53.138Z,100006.00
2023-02-25T18:13:49.683Z,99999.19
2023-02-25T18:18:50.733Z,100015.06
2023-02-25T18:23:50.643Z,100016.81
2023-02-25T18:28:47.323Z,100013.16
2023-02-25T18:33:43.907Z,100023.69
2023-02-25T18:38:43.732Z,100028.00
2023-02-25T18:43:41.993Z,100029.78
2023-02-25T18:48:39.278Z,100040.19
2023-02-25T18:53:35.848Z,100048.06
2023-02-25T18:58:32.375Z,100042.81
2023-02-25T19:03:37.424Z,100041.75
2023-02-25T19:08:34.176Z,100050.38
2023-02-25T19:13:36.771Z,100052.84
2023-02-25T19:18:33.467Z,100049.44
2023-02-25T19:23:29.816Z,100074.78
2023-02-25T19:28:26.886Z,100061.31
2023-02-25T19:33:23.267Z,100062.75
2023-02-25T19:38:19.970Z,100042.56
2023-02-25T19:43:17.773Z,100069.28
2023-02-25T19:48:14.155Z,100072.94
2023-02-25T19:53:11.143Z,100076.59
2023-02-25T19:58:07.464Z,100088.34
2023-02-25T20:03:04.262Z,100085.22
2023-02-25T20:08:00.750Z,100098.59
2023-02-25T20:12:57.072Z,100104.09
2023-02-25T20:17:54.972Z,100104.81
2023-02-25T20:22:51.615Z,100112.72
2023-02-25T20:27:48.031Z,100122.25
2023-02-25T20:32:45.631Z,100129.97
2023-02-25T20:37:52.868Z,100139.75
2023-02-25T20:42:49.752Z,100151.91
2023-02-25T20:47:46.363Z,100163.41
2023-02-25T20:52:43.273Z,100164.31
2023-02-25T20:57:39.800Z,100167.69
2023-02-25T21:02:36.227Z,100163.28
2023-02-25T21:07:32.698Z,100171.69
2023-02-25T21:12:29.558Z,100173.47
2023-02-25T21:17:26.109Z,100180.19
2023-02-25T21:22:22.514Z,100181.38
2023-02-25T21:27:19.212Z,100181.84
2023-02-25T21:32:18.293Z,100198.59
2023-02-25T21:37:14.813Z,100194.31
2023-02-25T21:42:11.212Z,100190.16
2023-02-25T21:47:07.638Z,100201.66
2023-02-25T21:52:04.423Z,100209.66
2023-02-25T21:57:00.916Z,100211.41
2023-02-25T22:01:57.348Z,100216.28
2023-02-25T22:06:53.744Z,100218.09
2023-02-25T22:11:50.125Z,100232.91
2023-02-25T22:16:46.498Z,100232.84
2023-02-25T22:21:43.071Z,100245.28
2023-02-25T22:26:39.632Z,100236.84
2023-02-25T22:31:36.413Z,100237.88
2023-02-25T22:36:32.960Z,100245.31
2023-02-25T22:41:30.191Z,100244.72
2023-02-25T22:46:32.595Z,100245.59
2023-02-25T22:51:32.521Z,100259.03
2023-02-25T22:56:29.036Z,100255.38
2023-02-25T23:01:26.550Z,100263.38
2023-02-25T23:06:37.455Z,100269.75
2023-02-25T23:11:41.520Z,100275.97
2023-02-25T23:16:41.856Z,100279.44
2023-02-25T23:21:38.739Z,100273.13
2023-02-25T23:26:40.446Z,100274.03
2023-02-25T23:31:41.538Z,100278.91
2023-02-25T23:36:39.716Z,100276.53
2023-02-25T23:41:37.234Z,100289.88
2023-02-25T23:46:34.255Z,100298.47
2023-02-25T23:51:31.024Z,100296.78
2023-02-25T23:56:29.041Z,100306.25
